AirNav   Pilot Hours Calculator
 
 1412 users online  

1OK8 5B Ranch Airport
Edmond, Oklahoma, USA

GOING TO EDMOND?


FAA INFORMATION EFFECTIVE 01 DECEMBER 2022

Location

FAA Identifier: 1OK8
Lat/Long: 35-43-47.1820N 097-32-29.1510W
35-43.786367N 097-32.485850W
35.7297728,-97.5414308
(estimated)
Elevation: 1085 ft. / 331 m (estimated)
Variation: 07E (1985)
From city: 6 miles NW of EDMOND, OK
Time zone: UTC -6 (UTC -5 during Daylight Saving Time)
Zip code: 73003

Airport Operations

Airport use: Private use. Permission required prior to landing
Activation date: 03/1991
Control tower: no
ARTCC: FORT WORTH CENTER
FSS: MC ALESTER FLIGHT SERVICE STATION
Attendance: IREG
Wind indicator: yes
Segmented circle: no

Airport Communications

WX ASOS at GOK (10 nm NE): 133.975 (405-282-0478)
WX AWOS-3 at HSD (11 nm SW): 120.975 (405-283-9848)
WX ASOS at PWA (13 nm SW): PHONE 405-798-2013
WX AWOS-3 at RCE (20 nm SW): 125.05 (405-354-2617)

Nearby radio navigation aids

VOR radial/distance  VOR name  Freq  Var
PWAr016/12.9WILEY POST VOR/DME113.4008E
IRWr001/22.5WILL ROGERS VORTAC114.1007E
SWOr210/37.1STILLWATER VOR/DME108.4007E

Airport Services

Runway Information

Runway 17/35

Dimensions: 2400 x 100 ft. / 732 x 30 m
Surface: turf
Operational restrictions: SLOPES UPHILL TO THE NORTH.
RUNWAY 17  RUNWAY 35
Traffic pattern: leftleft
Obstructions: 4 ft. fence, 20 ft. from runway30 ft. tree, 150 ft. from runway

Airport Ownership and Management from official FAA records

Ownership: Privately-owned
Owner: BREVETTI FAMILY HOMESTEAD
PO BOX 2282
EDMOND, OK 73083-2282
Phone 405-348-6029
Manager: JOSEPH C. BREVETTI
PO BOX 2282
EDMOND, OK 73083-2282
Phone 405-348-6029

Airport Operational Statistics

Aircraft based on the field: 3
Single engine airplanes: 2
Multi engine airplanes: 1
    

Additional Remarks

FOR CD CTC OKE CITY APCH AT 405-681-5683

Instrument Procedures

There are no published instrument procedures at 1OK8.

Some nearby airports with instrument procedures:

KGOK - Guthrie/Edmond Regional Airport (10 nm NE)
KHSD - Sundance Airport (11 nm SW)
KPWA - Wiley Post Airport (13 nm SW)
KRCE - Clarence E Page Municipal Airport (20 nm SW)
KTIK - Tinker Air Force Base (20 nm S)
 
Loc | Ops | Rwys | IFR | FBO | Links
Com | Nav | Svcs | Stats | Notes
Area around 1OK8 (5B Ranch Airport)
 
Road maps at: MapQuest Bing Google
 
Aerial photo
WARNING: Photo may not be current or correct
Aerial photo of 1OK8 (5B Ranch Airport)
Do you have a better or more recent aerial photo of 5B Ranch Airport that you would like to share? If so, please send us your photo.

 
Sectional chart

 
Airport distance calculator
Flying to 5B Ranch Airport? Find the distance to fly.

From to 1OK8

Sunrise and sunset
Times for 02-Dec-2022
 Local
(UTC-6)
 Zulu
(UTC)
Morning civil twilight06:5512:55
Sunrise07:2413:24
Sunset17:1623:16
Evening civil twilight17:4423:44

Current date and time
Zulu (UTC)  02-Dec-2022 16:07:36
Local (UTC-6)  02-Dec-2022 10:07:36
 
METAR
KGOK 
10nm NE 
021553Z AUTO 19013G23KT 10SM OVC008 11/09 A2990 RMK AO2 PK WND 18027/1503 SLP127 T01110094
KHSD 
11nm SW 
021555Z AUTO 19021G30KT 10SM CLR 12/11 A2990 RMK A01
KPWA 
13nm SW 
021553Z 18019G25KT 4SM BR OVC004 12/11 A2992 RMK AO2 PK WND 19028/1458 SLP133 T01170106
KRCE 
20nm SW 
021555Z AUTO 20025G30KT 7SM OVC005 11/11 A2991 RMK AO2
TAF
KTIK 
21nm SE 
021340Z 0213/0316 18014KT 4800 BR BKN003 WS020/20045KT QNH2991INS BECMG 0216/0217 20012G20KT 9999 NSW BKN010 520042 QNH2990INS BECMG 0218/0219 20020G30KT 9999 FEW004 BKN030 520042 QNH2989INS BECMG 0222/0223 20012KT 9999 FEW012 SCT050 510053 QNH2989INS TX15/0222Z TN07/0309Z
KOKC 
21nm S 
021120Z 0212/0312 17016G24KT 2SM BR OVC003 TEMPO 0212/0216 2SM -DZ BR OVC003 FM021600 20021G30KT 6SM BR BKN010 FM021900 21019G29KT P6SM SCT200 FM030400 33014G35KT P6SM BKN250 WS020/33060KT
NOTAMs
Click for the latest NOTAMs
NOTAMs are issued by the DoD/FAA and will open in a separate window not controlled by AirNav.

 

 
 

Would you like to see your business listed on this page?

 If your business provides an interesting product or service to pilots, flight crews, aircraft, or users of the 5B Ranch Airport, you should consider listing it here.  To start the listing process, click on the button below
 
Add a business
 

Other Pages about 5B Ranch Airport

Update a link
 
Copyright © AirNav, LLC. All rights reserved. Privacy Policy  Contact